Time;durP1;ratioP1;P1;durP2;ratioP2;P2;SDS_P1;SDS_P2;PMS_P1;PMS_P2;Temp;Humidity;BMP_temperature;BMP_pressure;BME280_temperature;BME280_humidity;BME280_pressure;Samples;Min_cycle;Max_cycle;Signal;HPM_P1;HPM_P2
2022/10/25 00:03:13;;;;;;;6.00;2.70;;;22.50;75.10;;;;;;213605;1288;24249;-58
2022/10/25 00:08:17;;;;;;;5.70;3.00;;;22.50;74.80;;;;;;213444;1303;24356;-58
2022/10/25 00:13:20;;;;;;;7.50;3.30;;;22.50;74.70;;;;;;213583;1288;22501;-58
2022/10/25 00:18:24;;;;;;;7.80;3.40;;;22.50;75.00;;;;;;213491;1281;24221;-56
2022/10/25 00:23:27;;;;;;;6.20;3.10;;;22.40;74.50;;;;;;213542;1281;24959;-58
2022/10/25 00:28:31;;;;;;;7.60;3.10;;;22.50;74.60;;;;;;213672;1288;22488;-56
2022/10/25 00:33:36;;;;;;;6.80;3.10;;;22.40;74.90;;;;;;213666;1301;22928;-56
2022/10/25 00:38:40;;;;;;;7.70;4.00;;;22.40;74.60;;;;;;213666;1287;25564;-57
2022/10/25 00:43:46;;;;;;;6.20;3.20;;;22.40;74.50;;;;;;213559;1286;22705;-58
2022/10/25 00:48:50;;;;;;;7.50;3.10;;;22.40;74.40;;;;;;213402;1296;25542;-59
2022/10/25 00:53:54;;;;;;;7.30;3.30;;;22.40;74.50;;;;;;213596;1292;22529;-58
2022/10/25 00:59:00;;;;;;;4.90;2.50;;;22.40;74.40;;;;;;213708;1288;22858;-59
2022/10/25 01:04:11;;;;;;;5.80;3.10;;;22.40;74.40;;;;;;213579;1281;24259;-58
2022/10/25 01:09:37;;;;;;;5.20;2.30;;;22.30;74.40;;;;;;213609;1281;22619;-58
2022/10/25 01:14:44;;;;;;;7.30;3.60;;;22.30;74.30;;;;;;213438;1284;22878;-59
2022/10/25 01:19:59;;;;;;;4.80;2.70;;;22.30;74.40;;;;;;213549;1288;22521;-59
2022/10/25 01:25:40;;;;;;;5.00;2.90;;;22.30;74.70;;;;;;213591;1286;22850;-57
2022/10/25 01:31:28;;;;;;;5.30;2.80;;;22.30;74.30;;;;;;213522;1280;22858;-58
2022/10/25 01:36:47;;;;;;;6.00;3.40;;;22.30;74.40;;;;;;212911;1291;26546;-58
2022/10/25 01:42:07;;;;;;;6.20;3.10;;;22.20;74.20;;;;;;213696;1288;24034;-58
2022/10/25 01:47:30;;;;;;;4.70;2.60;;;22.30;74.50;;;;;;213462;1287;22468;-57
2022/10/25 01:52:35;;;;;;;5.80;3.00;;;22.20;74.70;;;;;;213563;1280;22496;-57
2022/10/25 01:57:57;;;;;;;7.50;3.80;;;22.20;74.50;;;;;;213559;1283;24251;-57
2022/10/25 02:03:30;;;;;;;4.50;2.70;;;22.20;74.20;;;;;;213335;1287;25556;-57
2022/10/25 02:08:57;;;;;;;7.10;2.80;;;22.20;74.20;;;;;;213503;1285;22637;-57
2022/10/25 02:14:22;;;;;;;4.80;2.50;;;22.20;74.20;;;;;;213701;1287;22536;-57
2022/10/25 02:19:48;;;;;;;4.80;2.50;;;22.20;74.10;;;;;;213566;1286;22930;-57
2022/10/25 02:24:55;;;;;;;4.50;2.60;;;22.20;74.20;;;;;;213565;1291;24307;-56
2022/10/25 02:30:00;;;;;;;4.20;2.40;;;22.20;74.20;;;;;;213353;1287;22484;-58
2022/10/25 02:35:04;;;;;;;5.20;2.90;;;22.10;74.60;;;;;;213607;1286;23489;-57
2022/10/25 02:40:12;;;;;;;4.90;2.50;;;22.10;74.60;;;;;;213383;1284;23867;-59
2022/10/25 02:45:15;;;;;;;6.00;2.50;;;22.10;74.20;;;;;;213432;1290;22837;-58
2022/10/25 02:50:19;;;;;;;3.80;2.60;;;22.10;74.20;;;;;;213566;1284;23513;-58
2022/10/25 02:55:22;;;;;;;5.20;2.60;;;22.10;74.30;;;;;;213639;1288;22645;-58
2022/10/25 03:00:28;;;;;;;3.90;2.40;;;22.00;74.60;;;;;;213675;1288;22733;-58
2022/10/25 03:05:32;;;;;;;5.30;2.90;;;22.00;74.20;;;;;;213833;1288;24286;-58
2022/10/25 03:10:36;;;;;;;7.40;3.00;;;22.00;74.20;;;;;;213520;1292;24221;-58
2022/10/25 03:15:40;;;;;;;6.60;2.90;;;22.00;74.20;;;;;;213603;1284;22506;-59
2022/10/25 03:20:44;;;;;;;3.80;2.40;;;22.00;74.20;;;;;;213646;1286;25147;-58
2022/10/25 03:25:53;;;;;;;5.90;2.80;;;22.00;74.20;;;;;;213611;1286;24244;-58
2022/10/25 03:30:59;;;;;;;3.20;2.10;;;22.00;74.40;;;;;;213695;1288;23921;-58
2022/10/25 03:36:04;;;;;;;6.80;2.80;;;22.00;74.20;;;;;;213780;1294;25298;-57
2022/10/25 03:41:08;;;;;;;3.80;2.30;;;22.00;74.20;;;;;;213459;1284;24280;-58
2022/10/25 03:46:11;;;;;;;6.20;2.90;;;21.90;74.20;;;;;;213543;1288;22543;-57
2022/10/25 03:51:18;;;;;;;3.80;2.10;;;21.90;74.70;;;;;;213504;1281;22469;-59
2022/10/25 03:56:22;;;;;;;6.20;2.90;;;21.90;74.10;;;;;;213514;1286;22491;-58
2022/10/25 04:01:25;;;;;;;8.80;3.50;;;21.90;74.00;;;;;;213428;1288;22535;-58
2022/10/25 04:06:29;;;;;;;5.40;2.80;;;21.90;74.10;;;;;;213214;1288;22547;-57
2022/10/25 04:11:32;;;;;;;4.30;2.50;;;21.90;74.20;;;;;;213162;1280;22489;-58
2022/10/25 04:16:36;;;;;;;4.40;2.40;;;21.90;74.50;;;;;;213575;1280;22456;-57
2022/10/25 04:21:40;;;;;;;3.30;2.30;;;21.90;74.50;;;;;;213681;1293;23891;-59
2022/10/25 04:26:44;;;;;;;5.20;3.00;;;21.90;74.10;;;;;;213490;1296;22488;-57
2022/10/25 04:31:47;;;;;;;3.50;2.30;;;21.90;74.20;;;;;;213466;1286;22493;-57
2022/10/25 04:36:51;;;;;;;4.30;2.40;;;21.80;74.10;;;;;;221150;1285;22142;-56
2022/10/25 04:41:54;;;;;;;3.50;2.50;;;21.90;74.10;;;;;;220300;1290;22496;-57
2022/10/25 04:46:58;;;;;;;4.10;2.40;;;21.90;74.60;;;;;;213499;1288;25408;-57
2022/10/25 04:52:02;;;;;;;4.60;2.60;;;21.90;73.90;;;;;;213222;1300;22486;-59
2022/10/25 04:57:06;;;;;;;7.30;2.70;;;21.90;74.40;;;;;;213206;1280;24255;-57
2022/10/25 05:02:13;;;;;;;4.80;2.70;;;21.90;74.00;;;;;;213646;1288;22473;-60
2022/10/25 05:07:18;;;;;;;3.20;2.10;;;21.80;74.30;;;;;;213581;1293;22538;-58
2022/10/25 05:12:22;;;;;;;4.60;2.50;;;21.80;74.00;;;;;;213655;1295;24244;-57
2022/10/25 05:17:31;;;;;;;5.60;2.40;;;21.80;74.00;;;;;;213428;1295;24028;-59
2022/10/25 05:22:34;;;;;;;3.90;2.10;;;21.80;74.00;;;;;;213621;1279;23991;-58
2022/10/25 05:27:38;;;;;;;4.90;2.30;;;21.80;74.00;;;;;;213621;1280;24145;-58
2022/10/25 05:32:42;;;;;;;4.40;2.50;;;21.80;74.10;;;;;;213634;1280;23635;-58
2022/10/25 05:37:46;;;;;;;5.50;2.60;;;21.80;74.00;;;;;;213633;1283;24234;-58
2022/10/25 05:42:52;;;;;;;3.20;2.10;;;21.70;73.90;;;;;;213718;1288;22727;-57
2022/10/25 05:47:55;;;;;;;4.60;2.40;;;21.70;73.90;;;;;;213657;1287;22511;-58
2022/10/25 05:52:59;;;;;;;4.00;2.10;;;21.70;74.50;;;;;;213511;1280;25545;-59
2022/10/25 05:58:03;;;;;;;6.00;2.60;;;21.70;74.10;;;;;;213558;1287;25325;-59
2022/10/25 06:03:06;;;;;;;3.80;2.10;;;21.70;74.20;;;;;;213509;1280;26607;-62
2022/10/25 06:08:16;;;;;;;6.30;2.50;;;21.70;74.20;;;;;;212663;1298;1185745;-59
2022/10/25 06:13:20;;;;;;;7.70;2.80;;;21.80;74.20;;;;;;213550;1294;22488;-59
2022/10/25 06:18:23;;;;;;;6.60;2.40;;;21.70;74.50;;;;;;213539;1285;22638;-57
2022/10/25 06:23:27;;;;;;;5.40;2.40;;;21.70;74.80;;;;;;213560;1280;22604;-58
2022/10/25 06:28:32;;;;;;;4.20;2.50;;;21.80;74.40;;;;;;213608;1287;22552;-58
2022/10/25 06:33:35;;;;;;;6.60;2.70;;;21.80;74.30;;;;;;213647;1302;22506;-59
2022/10/25 06:38:39;;;;;;;6.20;2.10;;;21.80;74.00;;;;;;213941;1289;25388;-60
2022/10/25 06:43:43;;;;;;;6.40;2.60;;;21.80;73.90;;;;;;213519;1278;22464;-57
2022/10/25 06:48:46;;;;;;;10.50;2.50;;;21.80;73.90;;;;;;213568;1288;22713;-60
2022/10/25 06:53:54;;;;;;;9.20;2.90;;;21.90;73.90;;;;;;213598;1280;24280;-58
2022/10/25 06:58:59;;;;;;;9.50;2.80;;;21.90;73.30;;;;;;213676;1280;23890;-59
2022/10/25 07:04:03;;;;;;;12.60;3.80;;;21.90;73.40;;;;;;213565;1280;24366;-57
2022/10/25 07:09:11;;;;;;;5.40;2.60;;;22.00;73.10;;;;;;213734;1286;22495;-57
2022/10/25 07:14:14;;;;;;;9.60;3.20;;;22.00;73.30;;;;;;216108;1287;22565;-57
2022/10/25 07:19:18;;;;;;;6.40;3.10;;;21.90;72.40;;;;;;213178;1281;26694;-59
2022/10/25 07:24:21;;;;;;;16.00;3.10;;;21.90;72.80;;;;;;215769;1287;22504;-56
2022/10/25 07:29:25;;;;;;;10.10;3.10;;;21.90;72.50;;;;;;213371;1294;24231;-58
2022/10/25 07:34:28;;;;;;;10.80;3.10;;;21.90;72.30;;;;;;213551;1288;24252;-56
2022/10/25 07:39:32;;;;;;;6.30;3.00;;;21.90;72.10;;;;;;213524;1286;25317;-57
2022/10/25 07:44:35;;;;;;;7.80;3.10;;;21.90;72.00;;;;;;213446;1286;22482;-59
2022/10/25 07:49:39;;;;;;;9.20;3.00;;;21.90;72.00;;;;;;213397;1288;22631;-57
2022/10/25 07:54:43;;;;;;;10.40;3.20;;;21.90;71.90;;;;;;213611;1287;22441;-58
2022/10/25 07:59:46;;;;;;;6.70;3.10;;;21.90;72.10;;;;;;213287;1282;24231;-58
2022/10/25 08:04:50;;;;;;;7.20;2.40;;;21.90;72.10;;;;;;213336;1280;22555;-58
2022/10/25 08:09:57;;;;;;;5.50;2.80;;;21.90;72.10;;;;;;213272;1288;22487;-57
2022/10/25 08:15:06;;;;;;;4.90;2.80;;;21.90;72.00;;;;;;213433;1288;24258;-60
2022/10/25 08:20:13;;;;;;;10.90;3.40;;;21.80;72.00;;;;;;213390;1280;24329;-60
2022/10/25 08:25:16;;;;;;;8.20;3.20;;;21.90;72.00;;;;;;213245;1281;22483;-56
2022/10/25 08:30:20;;;;;;;8.90;3.60;;;21.90;71.90;;;;;;213274;1281;24244;-58
2022/10/25 08:35:24;;;;;;;9.00;3.40;;;21.90;71.80;;;;;;213369;1293;22500;-59
2022/10/25 08:40:39;;;;;;;5.00;2.30;;;21.90;71.70;;;;;;213290;1286;22481;-57
2022/10/25 08:45:51;;;;;;;5.60;2.60;;;22.00;71.10;;;;;;213372;1283;22571;-60
2022/10/25 08:51:01;;;;;;;8.70;3.10;;;22.00;71.50;;;;;;213250;1293;24220;-58
2022/10/25 08:56:09;;;;;;;8.30;3.10;;;22.00;71.30;;;;;;213709;1286;25210;-59
2022/10/25 09:01:28;;;;;;;6.90;2.70;;;22.00;71.40;;;;;;214518;1280;22513;-62
2022/10/25 09:06:47;;;;;;;4.70;2.20;;;22.00;71.60;;;;;;213430;1296;22495;-60
2022/10/25 09:12:03;;;;;;;3.80;2.30;;;22.00;70.80;;;;;;213306;1288;22720;-59
2022/10/25 09:17:21;;;;;;;6.50;2.70;;;22.20;71.30;;;;;;213223;1288;22472;-61
2022/10/25 09:22:46;;;;;;;12.10;3.30;;;22.30;70.80;;;;;;213394;1288;22734;-61
2022/10/25 09:28:02;;;;;;;5.60;2.00;;;22.40;70.10;;;;;;213612;1280;23890;-62
2022/10/25 09:33:14;;;;;;;6.50;2.90;;;22.50;69.80;;;;;;213477;1287;22594;-61
2022/10/25 09:38:25;;;;;;;3.90;1.90;;;22.50;69.60;;;;;;213431;1302;22721;-60
2022/10/25 09:43:39;;;;;;;4.30;2.40;;;22.60;69.40;;;;;;213422;1288;25672;-62
2022/10/25 09:48:54;;;;;;;6.90;2.10;;;22.70;69.30;;;;;;213533;1288;25252;-58
2022/10/25 09:54:03;;;;;;;4.80;2.30;;;22.70;69.20;;;;;;213429;1280;22770;-55
2022/10/25 09:59:12;;;;;;;4.40;2.40;;;22.70;69.00;;;;;;213470;1288;22717;-60
2022/10/25 10:04:36;;;;;;;4.90;1.90;;;22.70;68.90;;;;;;213395;1280;22518;-60
2022/10/25 10:09:42;;;;;;;4.50;2.50;;;22.80;69.10;;;;;;213522;1278;24256;-62
2022/10/25 10:15:05;;;;;;;6.40;2.50;;;22.80;68.60;;;;;;213526;1286;25253;-62
2022/10/25 10:20:13;;;;;;;5.80;2.40;;;22.80;68.50;;;;;;213432;1280;23857;-59
2022/10/25 10:25:24;;;;;;;4.70;2.00;;;22.80;68.30;;;;;;213502;1285;26020;-63
2022/10/25 10:30:29;;;;;;;7.90;2.80;;;22.90;68.50;;;;;;213353;1288;25141;-60
2022/10/25 10:35:35;;;;;;;4.50;2.00;;;23.00;68.00;;;;;;213486;1283;22482;-59
2022/10/25 10:40:39;;;;;;;4.10;2.00;;;22.90;67.80;;;;;;213395;1283;24318;-60
2022/10/25 10:45:49;;;;;;;4.60;2.30;;;22.90;68.00;;;;;;213517;1310;25207;-60
2022/10/25 10:50:52;;;;;;;4.80;1.90;;;22.80;68.40;;;;;;213803;1288;22811;-60
2022/10/25 10:55:59;;;;;;;8.90;2.40;;;22.80;70.00;;;;;;213515;1287;22558;-59
2022/10/25 11:01:06;;;;;;;3.80;2.00;;;22.70;70.10;;;;;;213525;1285;23880;-59
2022/10/25 11:06:30;;;;;;;5.30;2.20;;;22.70;69.60;;;;;;213567;1280;22548;-59
2022/10/25 11:11:33;;;;;;;5.10;2.20;;;22.70;69.60;;;;;;213584;1288;22836;-60
2022/10/25 11:16:59;;;;;;;8.00;2.50;;;22.70;69.30;;;;;;213523;1286;22552;-59
2022/10/25 11:22:33;;;;;;;6.00;2.40;;;22.60;69.10;;;;;;213394;1283;24254;-58
2022/10/25 11:27:56;;;;;;;5.40;2.00;;;22.50;69.00;;;;;;213629;1288;22616;-59
2022/10/25 11:33:14;;;;;;;3.90;2.00;;;22.60;68.40;;;;;;213569;1288;23885;-59
2022/10/25 11:38:33;;;;;;;4.10;1.80;;;22.70;67.90;;;;;;213614;1288;24238;-59
2022/10/25 11:43:57;;;;;;;3.60;2.00;;;22.90;68.00;;;;;;213686;1288;25291;-57
2022/10/25 11:49:25;;;;;;;4.50;2.30;;;22.90;67.50;;;;;;213629;1293;24278;-60
2022/10/25 11:54:56;;;;;;;3.70;2.00;;;23.00;67.10;;;;;;213483;1288;22994;-60
2022/10/25 12:00:06;;;;;;;4.30;1.70;;;23.00;67.00;;;;;;213585;1280;22509;-60
2022/10/25 12:05:36;;;;;;;4.60;2.10;;;23.10;67.10;;;;;;213576;1295;25652;-60
2022/10/25 12:10:46;;;;;;;4.80;1.90;;;23.10;66.50;;;;;;213607;1293;22498;-59
2022/10/25 12:15:53;;;;;;;5.90;2.00;;;23.10;66.80;;;;;;213602;1288;25505;-58
2022/10/25 12:21:01;;;;;;;8.00;2.80;;;23.20;66.30;;;;;;213587;1286;22505;-59
2022/10/25 12:26:27;;;;;;;4.30;1.90;;;23.20;66.50;;;;;;213387;1283;24921;-60
2022/10/25 12:31:37;;;;;;;3.30;1.60;;;23.20;65.90;;;;;;213588;1288;22487;-59
2022/10/25 12:37:09;;;;;;;7.30;2.40;;;23.10;66.10;;;;;;213632;1294;25439;-59
2022/10/25 12:42:27;;;;;;;4.90;2.10;;;23.10;66.20;;;;;;213462;1289;25740;-59
2022/10/25 12:48:06;;;;;;;5.30;2.00;;;23.10;66.10;;;;;;213378;1289;22499;-61
2022/10/25 12:53:52;;;;;;;4.30;1.90;;;23.10;65.50;;;;;;213696;1295;25311;-59
2022/10/25 12:59:22;;;;;;;4.20;1.90;;;23.20;65.90;;;;;;213368;1300;24292;-59
2022/10/25 13:05:04;;;;;;;2.50;1.50;;;23.20;65.60;;;;;;213732;1294;22593;-59
2022/10/25 13:10:17;;;;;;;5.00;1.60;;;23.10;65.70;;;;;;213442;1288;23827;-61
2022/10/25 13:15:23;;;;;;;3.10;1.80;;;23.10;65.80;;;;;;213726;1292;22729;-64
2022/10/25 13:20:33;;;;;;;3.20;1.80;;;23.00;65.90;;;;;;213594;1283;22548;-60
2022/10/25 13:25:49;;;;;;;3.00;1.80;;;23.00;66.00;;;;;;213535;1281;23855;-61
2022/10/25 13:31:32;;;;;;;4.70;1.70;;;23.00;66.00;;;;;;213580;1283;22558;-60
2022/10/25 13:36:52;;;;;;;5.00;1.80;;;23.00;66.40;;;;;;213492;1292;22483;-61
2022/10/25 13:42:15;;;;;;;3.60;1.90;;;22.90;66.30;;;;;;213588;1285;22473;-61
2022/10/25 13:47:53;;;;;;;3.80;1.70;;;22.90;66.00;;;;;;213485;1288;22486;-63
2022/10/25 13:53:23;;;;;;;10.50;2.00;;;22.90;66.00;;;;;;213760;1295;23440;-62
2022/10/25 13:58:31;;;;;;;4.10;1.60;;;22.90;66.30;;;;;;213736;1284;25490;-62
2022/10/25 14:03:50;;;;;;;7.40;1.90;;;22.90;67.30;;;;;;213488;1283;24176;-58
2022/10/25 14:09:09;;;;;;;6.60;3.30;;;22.90;67.80;;;;;;213420;1283;22490;-55
2022/10/25 14:14:25;;;;;;;6.30;2.50;;;22.90;68.20;;;;;;213565;1284;22533;-59
2022/10/25 14:20:06;;;;;;;;;;;;;;;;;;;;;
2022/10/25 14:25:16;;;;;;;5.80;2.10;;;22.90;67.80;;;;;;213808;1288;24980;-59
2022/10/25 14:30:24;;;;;;;7.00;2.50;;;22.90;67.90;;;;;;213672;1288;22478;-58
2022/10/25 14:35:34;;;;;;;2.70;1.60;;;22.90;68.30;;;;;;213466;1291;22557;-57
2022/10/25 14:40:37;;;;;;;7.50;2.50;;;22.90;67.80;;;;;;213674;1284;24182;-58
2022/10/25 14:45:40;;;;;;;8.40;2.10;;;22.90;68.00;;;;;;213489;1288;22475;-58
2022/10/25 14:50:44;;;;;;;3.70;2.10;;;22.90;68.30;;;;;;213589;1299;26548;-58
2022/10/25 14:56:26;;;;;;;10.50;2.50;;;22.90;67.80;;;;;;213450;1286;25502;-59
2022/10/25 15:01:30;;;;;;;5.80;2.50;;;22.90;68.10;;;;;;213555;1295;24798;-59
2022/10/25 15:06:34;;;;;;;6.50;2.40;;;22.90;68.80;;;;;;213585;1291;24985;-59
2022/10/25 15:11:37;;;;;;;6.50;2.10;;;22.90;69.40;;;;;;213521;1288;24275;-58
2022/10/25 15:16:41;;;;;;;6.30;2.10;;;22.90;69.20;;;;;;213551;1291;23819;-60
2022/10/25 15:21:44;;;;;;;7.90;2.40;;;22.90;69.40;;;;;;213657;1288;24276;-58
2022/10/25 15:27:07;;;;;;;4.70;2.00;;;22.90;69.50;;;;;;213640;1288;24733;-62
2022/10/25 15:32:23;;;;;;;4.20;2.10;;;22.80;69.60;;;;;;213704;1283;23763;-61
2022/10/25 15:37:38;;;;;;;7.50;2.30;;;22.80;69.60;;;;;;213535;1284;22545;-62
2022/10/25 15:42:43;;;;;;;8.00;2.60;;;22.70;69.90;;;;;;213512;1283;25507;-61
2022/10/25 15:47:50;;;;;;;7.20;2.30;;;22.80;69.40;;;;;;213431;1283;25783;-58
2022/10/25 15:53:03;;;;;;;5.90;2.30;;;22.80;69.20;;;;;;213377;1283;22480;-61
2022/10/25 15:58:10;;;;;;;7.30;2.00;;;22.80;69.60;;;;;;213319;1283;22478;-62
2022/10/25 16:03:23;;;;;;;9.30;2.40;;;22.80;69.50;;;;;;213361;1291;22521;-63
2022/10/25 16:08:28;;;;;;;7.40;1.90;;;22.90;68.80;;;;;;213428;1284;24238;-60
2022/10/25 16:13:42;;;;;;;11.80;2.20;;;22.90;69.10;;;;;;213348;1283;23814;-57
2022/10/25 16:18:53;;;;;;;7.80;1.90;;;22.90;69.00;;;;;;213363;1288;24253;-60
2022/10/25 16:24:07;;;;;;;5.80;2.20;;;22.90;68.90;;;;;;213436;1283;25231;-59
2022/10/25 16:29:25;;;;;;;18.00;2.60;;;22.90;68.90;;;;;;213287;1286;24208;-59
2022/10/25 16:34:44;;;;;;;12.90;2.40;;;22.90;69.00;;;;;;213379;1290;22724;-59
2022/10/25 16:39:58;;;;;;;17.00;2.50;;;22.90;68.60;;;;;;213488;1303;22485;-58
2022/10/25 16:45:35;;;;;;;16.20;3.10;;;22.90;69.00;;;;;;213552;1292;22616;-61
2022/10/25 16:50:48;;;;;;;8.00;2.30;;;22.80;68.50;;;;;;213605;1291;24243;-58
2022/10/25 16:56:20;;;;;;;14.40;2.70;;;22.90;68.90;;;;;;213811;1283;22725;-58
2022/10/25 17:01:37;;;;;;;10.20;2.30;;;22.80;68.70;;;;;;213678;1283;25609;-58
2022/10/25 17:06:59;;;;;;;11.50;3.00;;;22.80;68.20;;;;;;213429;1286;23832;-57
2022/10/25 17:12:06;;;;;;;8.50;2.60;;;22.90;69.40;;;;;;213486;1291;25421;-58
2022/10/25 17:17:10;;;;;;;10.30;2.30;;;22.90;68.90;;;;;;213567;1288;22481;-58
2022/10/25 17:22:14;;;;;;;6.20;2.20;;;22.80;69.40;;;;;;213720;1280;23930;-60
2022/10/25 17:27:17;;;;;;;10.00;2.60;;;22.80;68.90;;;;;;213621;1284;23542;-61
2022/10/25 17:32:21;;;;;;;10.30;2.90;;;22.80;69.10;;;;;;213601;1291;22522;-58
2022/10/25 17:37:25;;;;;;;11.60;2.40;;;22.80;68.60;;;;;;213686;1293;25253;-59
2022/10/25 17:42:33;;;;;;;8.70;2.30;;;22.90;69.40;;;;;;213480;1283;25549;-53
2022/10/25 17:47:41;;;;;;;10.10;2.70;;;22.80;69.20;;;;;;213363;1284;26588;-55
2022/10/25 17:52:52;;;;;;;6.40;2.60;;;22.70;69.00;;;;;;213433;1288;24747;-59
2022/10/25 17:57:55;;;;;;;16.60;3.00;;;22.70;69.00;;;;;;213464;1291;25442;-58
2022/10/25 18:02:59;;;;;;;13.90;2.70;;;22.70;69.00;;;;;;213384;1287;25700;-59
2022/10/25 18:08:03;;;;;;;9.20;2.80;;;22.70;69.20;;;;;;213189;1294;266408;-56
2022/10/25 18:13:06;;;;;;;9.40;2.60;;;22.70;69.00;;;;;;213354;1288;22661;-59
2022/10/25 18:18:18;;;;;;;6.80;2.40;;;22.70;69.30;;;;;;214964;1288;22691;-56
2022/10/25 18:23:24;;;;;;;11.00;2.90;;;22.70;69.10;;;;;;213449;1281;22621;-58
2022/10/25 18:28:33;;;;;;;47.60;25.00;;;22.70;68.70;;;;;;213424;1292;24016;-56
2022/10/25 18:33:41;;;;;;;41.50;23.30;;;22.70;68.90;;;;;;213629;1288;25203;-57
2022/10/25 18:38:59;;;;;;;35.90;18.90;;;22.60;68.90;;;;;;213458;1288;22662;-56
2022/10/25 18:44:10;;;;;;;32.20;17.30;;;22.70;69.00;;;;;;214739;1284;24248;-54
2022/10/25 18:49:17;;;;;;;27.70;15.20;;;22.70;68.80;;;;;;213552;1295;22494;-56
2022/10/25 18:54:21;;;;;;;31.00;16.40;;;22.70;69.30;;;;;;213476;1293;22545;-56
2022/10/25 18:59:25;;;;;;;31.40;15.00;;;22.70;69.30;;;;;;213414;1288;22612;-56
2022/10/25 19:04:29;;;;;;;28.70;15.50;;;22.70;69.00;;;;;;213507;1280;25720;-56
2022/10/25 19:09:34;;;;;;;28.40;14.60;;;22.70;68.90;;;;;;213634;1294;23483;-57
2022/10/25 19:14:38;;;;;;;28.10;14.20;;;22.70;68.80;;;;;;213529;1283;22657;-56
2022/10/25 19:19:42;;;;;;;26.60;13.80;;;22.70;68.60;;;;;;213592;1291;22530;-56
2022/10/25 19:24:46;;;;;;;25.80;13.20;;;22.70;69.00;;;;;;213566;1289;24489;-57
2022/10/25 19:29:50;;;;;;;22.00;12.20;;;22.70;68.40;;;;;;213529;1288;22486;-56
2022/10/25 19:34:54;;;;;;;22.90;12.40;;;22.60;68.80;;;;;;213458;1289;23510;-56
2022/10/25 19:40:03;;;;;;;25.90;11.30;;;22.60;68.40;;;;;;213571;1291;26009;-55
2022/10/25 19:45:14;;;;;;;28.90;11.60;;;22.60;68.70;;;;;;213628;1283;24235;-54
2022/10/25 19:50:23;;;;;;;25.30;11.80;;;22.60;68.60;;;;;;213407;1283;22750;-56
2022/10/25 19:55:26;;;;;;;23.60;12.00;;;22.60;68.60;;;;;;213410;1288;22714;-56
2022/10/25 20:00:36;;;;;;;19.50;9.90;;;22.60;68.60;;;;;;213519;1287;25414;-56
2022/10/25 20:05:44;;;;;;;;;;;22.60;68.50;;;;;;213669;1283;25277;-56
2022/10/25 20:10:48;;;;;;;19.20;10.70;;;22.60;68.70;;;;;;213559;1288;22700;-56
2022/10/25 20:15:54;;;;;;;17.50;10.70;;;22.60;68.80;;;;;;213538;1290;22472;-57
2022/10/25 20:21:04;;;;;;;19.10;10.40;;;22.60;69.10;;;;;;213454;1286;25459;-56
2022/10/25 20:26:18;;;;;;;23.80;9.70;;;22.50;69.00;;;;;;213499;1286;24360;-56
2022/10/25 20:31:24;;;;;;;18.80;9.40;;;22.50;69.20;;;;;;213758;1281;23828;-56
2022/10/25 20:36:30;;;;;;;18.40;10.00;;;22.40;69.20;;;;;;213490;1283;24289;-56
2022/10/25 20:41:41;;;;;;;16.50;8.60;;;22.50;70.20;;;;;;213500;1287;22484;-57
2022/10/25 20:46:51;;;;;;;19.80;9.70;;;22.40;71.70;;;;;;213451;1288;25270;-56
2022/10/25 20:51:59;;;;;;;22.60;10.40;;;22.40;71.20;;;;;;213605;1287;24199;-57
2022/10/25 20:57:03;;;;;;;19.10;9.80;;;22.40;70.80;;;;;;213458;1286;24238;-57
2022/10/25 21:02:08;;;;;;;20.60;9.60;;;22.40;70.70;;;;;;213442;1284;22556;-55
2022/10/25 21:07:13;;;;;;;19.40;9.00;;;22.30;71.30;;;;;;213416;1288;22722;-57
2022/10/25 21:12:16;;;;;;;15.90;8.80;;;22.30;70.90;;;;;;213430;1283;25218;-56
2022/10/25 21:17:20;;;;;;;19.40;8.60;;;22.30;71.40;;;;;;213385;1288;26579;-58
2022/10/25 21:22:24;;;;;;;19.90;9.40;;;22.30;72.40;;;;;;213402;1296;24369;-58
2022/10/25 21:27:37;;;;;;;20.90;9.40;;;22.40;74.80;;;;;;213525;1286;26483;-56
2022/10/25 21:32:49;;;;;;;17.50;8.80;;;22.40;74.60;;;;;;213544;1286;24044;-57
2022/10/25 21:37:59;;;;;;;19.50;8.80;;;22.40;74.40;;;;;;213503;1281;22478;-56
2022/10/25 21:43:12;;;;;;;16.50;8.80;;;22.40;74.20;;;;;;213662;1288;22494;-56
2022/10/25 21:48:19;;;;;;;16.50;8.40;;;22.40;74.10;;;;;;213546;1286;22742;-54
2022/10/25 21:53:31;;;;;;;14.20;8.40;;;22.40;74.00;;;;;;213463;1283;22860;-56
2022/10/25 21:58:38;;;;;;;19.10;9.60;;;22.40;74.00;;;;;;213538;1288;22709;-55
2022/10/25 22:03:42;;;;;;;16.20;7.90;;;22.40;73.90;;;;;;213364;1303;25345;-56
2022/10/25 22:08:47;;;;;;;19.30;9.30;;;22.40;73.90;;;;;;213396;1291;25272;-56
2022/10/25 22:13:58;;;;;;;12.60;7.40;;;22.40;74.00;;;;;;213566;1287;24028;-56
2022/10/25 22:19:04;;;;;;;19.30;8.90;;;22.30;73.90;;;;;;213700;1286;22613;-57
2022/10/25 22:24:11;;;;;;;14.30;8.10;;;22.30;73.90;;;;;;213638;1288;24232;-50
2022/10/25 22:29:14;;;;;;;14.10;8.40;;;22.30;74.00;;;;;;213702;1287;22495;-57
2022/10/25 22:34:20;;;;;;;14.50;8.20;;;22.30;74.60;;;;;;213562;1280;23570;-60
2022/10/25 22:39:23;;;;;;;15.10;8.00;;;22.30;73.90;;;;;;213478;1286;22704;-56
2022/10/25 22:44:29;;;;;;;15.40;8.40;;;22.30;74.00;;;;;;213596;1290;22723;-58
2022/10/25 22:49:33;;;;;;;13.70;8.10;;;22.30;74.10;;;;;;213480;1288;22676;-57
2022/10/25 22:54:37;;;;;;;14.00;8.20;;;22.20;74.00;;;;;;213399;1288;25372;-58
2022/10/25 22:59:41;;;;;;;11.60;7.30;;;22.20;73.80;;;;;;213708;1286;22655;-57
2022/10/25 23:04:46;;;;;;;12.20;7.80;;;22.20;73.50;;;;;;213520;1284;23266;-57
2022/10/25 23:09:53;;;;;;;14.80;8.30;;;22.20;73.60;;;;;;213423;1288;22723;-57
2022/10/25 23:14:56;;;;;;;14.90;8.60;;;22.10;73.60;;;;;;213436;1287;22474;-57
2022/10/25 23:20:00;;;;;;;12.40;7.80;;;22.10;73.50;;;;;;213747;1294;22483;-56
2022/10/25 23:25:05;;;;;;;11.60;7.50;;;22.10;73.90;;;;;;213593;1288;22491;-55
2022/10/25 23:30:10;;;;;;;13.30;8.40;;;22.10;73.80;;;;;;213584;1303;22598;-56
2022/10/25 23:35:17;;;;;;;12.00;7.30;;;22.10;73.70;;;;;;213508;1286;22587;-57
2022/10/25 23:40:23;;;;;;;12.00;7.30;;;22.00;73.60;;;;;;213688;1294;24258;-56
2022/10/25 23:45:27;;;;;;;11.10;6.70;;;22.00;73.40;;;;;;213436;1280;22516;-57
2022/10/25 23:50:30;;;;;;;14.10;7.30;;;22.00;73.30;;;;;;213386;1279;22495;-56
2022/10/25 23:55:37;;;;;;;12.60;7.10;;;22.00;73.40;;;;;;213610;1288;22563;-58
